Time;durP1;ratioP1;P1;durP2;ratioP2;P2;SDS_P1;SDS_P2;PMS_P1;PMS_P2;Temp;Humidity;BMP_temperature;BMP_pressure;BME280_temperature;BME280_humidity;BME280_pressure;Samples;Min_cycle;Max_cycle;Signal;HPM_P1;HPM_P2
2022/08/13 00:01:26;;;;;;;5.60;2.40;;;19.90;97.80;;;;;;6149883;22;20335;-89
2022/08/13 00:03:55;;;;;;;9.57;3.08;;;19.80;97.90;;;;;;6128063;23;20298;-88
2022/08/13 00:09:12;;;;;;;5.15;3.05;;;19.80;98.50;;;;;;6046677;23;20098;-87
2022/08/13 00:14:31;;;;;;;6.30;2.58;;;19.70;98.90;;;;;;6047433;23;20522;-87
2022/08/13 00:16:58;;;;;;;6.43;3.33;;;19.70;99.10;;;;;;6063771;23;20030;-88
2022/08/13 00:19:26;;;;;;;6.85;2.30;;;19.70;99.30;;;;;;6035047;23;20110;-89
2022/08/13 00:21:56;;;;;;;6.20;2.83;;;19.60;99.50;;;;;;6058942;23;20043;-89
2022/08/13 00:24:22;;;;;;;7.38;2.65;;;19.60;99.60;;;;;;6011171;23;20027;-89
2022/08/13 00:26:48;;;;;;;5.55;2.45;;;19.50;99.90;;;;;;6010301;23;20019;-88
2022/08/13 00:29:14;;;;;;;5.78;2.42;;;19.50;99.90;;;;;;6010460;23;20030;-88
2022/08/13 00:31:41;;;;;;;5.22;2.50;;;19.50;99.90;;;;;;6010357;23;20426;-88
2022/08/13 00:34:07;;;;;;;8.05;3.20;;;19.40;99.90;;;;;;6032058;23;20447;-88
2022/08/13 00:36:34;;;;;;;7.53;2.80;;;19.50;99.90;;;;;;6008292;23;20084;-89
2022/08/13 00:39:01;;;;;;;6.57;2.70;;;19.30;99.90;;;;;;6055977;23;20019;-88
2022/08/13 00:41:38;;;;;;;7.22;2.70;;;19.30;99.90;;;;;;6032031;23;20090;-88
2022/08/13 00:44:06;;;;;;;5.25;2.67;;;19.30;99.90;;;;;;6031345;23;20026;-88
2022/08/13 00:46:33;;;;;;;5.00;2.70;;;19.20;99.90;;;;;;6115242;23;20021;-88
2022/08/13 00:49:01;;;;;;;8.30;2.55;;;19.20;99.90;;;;;;6144392;22;20017;-87
2022/08/13 00:51:28;;;;;;;4.93;2.85;;;19.20;99.90;;;;;;6119800;23;20020;-88
2022/08/13 00:53:54;;;;;;;7.40;2.75;;;19.10;99.90;;;;;;6146102;23;20067;-88
2022/08/13 00:56:23;;;;;;;4.95;2.70;;;19.10;99.90;;;;;;6143524;23;20013;-88
2022/08/13 00:58:50;;;;;;;5.50;2.83;;;19.10;99.90;;;;;;6146243;23;20084;-88
2022/08/13 01:01:18;;;;;;;6.07;3.15;;;19.00;99.90;;;;;;6144178;23;20025;-88
2022/08/13 01:03:44;;;;;;;7.63;3.22;;;19.00;99.90;;;;;;6143545;23;20014;-88
2022/08/13 01:06:10;;;;;;;6.63;2.97;;;19.00;99.90;;;;;;6144747;23;20025;-88
2022/08/13 01:08:40;;;;;;;6.50;3.17;;;19.00;99.90;;;;;;6145934;23;20014;-88
2022/08/13 01:11:13;;;;;;;6.78;2.65;;;19.00;99.90;;;;;;6143690;22;20069;-88
2022/08/13 01:13:41;;;;;;;7.70;3.00;;;18.90;99.90;;;;;;6144294;22;20396;-88
2022/08/13 01:16:16;;;;;;;8.77;2.90;;;18.90;99.90;;;;;;6146000;23;20435;-88
2022/08/13 01:18:43;;;;;;;6.68;2.80;;;18.90;99.90;;;;;;6144062;23;20014;-88
2022/08/13 01:21:13;;;;;;;7.22;3.47;;;18.80;99.90;;;;;;6145767;23;20014;-88
2022/08/13 01:23:42;;;;;;;6.20;3.20;;;18.80;99.90;;;;;;6143768;23;20014;-88
2022/08/13 01:26:08;;;;;;;4.68;2.60;;;18.80;99.90;;;;;;6119212;23;20026;-88
2022/08/13 01:28:33;;;;;;;6.80;3.05;;;18.70;99.90;;;;;;6143742;23;20013;-88
2022/08/13 01:31:04;;;;;;;7.85;3.60;;;18.70;99.90;;;;;;6119640;23;20093;-88
2022/08/13 01:33:30;;;;;;;5.20;2.88;;;18.70;99.90;;;;;;6144283;23;20017;-89
2022/08/13 01:35:58;;;;;;;7.47;3.03;;;18.70;99.90;;;;;;6146247;23;20092;-89
2022/08/13 01:38:26;;;;;;;5.80;3.13;;;18.70;99.90;;;;;;6147167;23;20017;-88
2022/08/13 01:40:52;;;;;;;6.90;3.63;;;18.70;99.90;;;;;;6146312;23;20474;-89
2022/08/13 01:43:18;;;;;;;5.45;3.30;;;18.70;99.90;;;;;;6147313;23;20013;-88
2022/08/13 01:45:44;;;;;;;7.40;3.50;;;18.60;99.90;;;;;;6146779;22;20101;-88
2022/08/13 01:50:55;;;;;;;8.02;3.60;;;18.60;99.90;;;;;;6144966;23;20092;-88
2022/08/13 01:53:20;;;;;;;11.18;4.13;;;18.60;99.90;;;;;;6120530;23;20049;-88
2022/08/13 01:55:48;;;;;;;6.57;3.65;;;18.60;99.90;;;;;;6143880;23;20024;-88
2022/08/13 01:58:19;;;;;;;7.10;3.65;;;18.50;99.90;;;;;;6120918;23;20028;-88
2022/08/13 02:00:48;;;;;;;9.25;3.97;;;18.50;99.90;;;;;;6120265;23;20018;-88
2022/08/13 02:03:16;;;;;;;5.93;3.58;;;18.40;99.90;;;;;;6146908;23;20523;-88
2022/08/13 02:05:42;;;;;;;6.43;4.10;;;18.40;99.90;;;;;;6146689;23;20354;-88
2022/08/13 02:08:11;;;;;;;6.10;3.45;;;18.40;99.90;;;;;;6146846;23;20446;-88
2022/08/13 02:10:38;;;;;;;8.02;3.80;;;18.40;99.90;;;;;;6145748;23;20345;-89
2022/08/13 02:13:13;;;;;;;7.53;3.90;;;18.40;99.90;;;;;;6145719;22;20503;-88
2022/08/13 02:15:40;;;;;;;5.95;3.63;;;18.30;99.90;;;;;;6144834;22;20454;-88
2022/08/13 02:18:07;;;;;;;7.03;3.50;;;18.30;99.90;;;;;;6145218;22;20394;-88
2022/08/13 02:20:35;;;;;;;7.05;3.90;;;18.30;99.90;;;;;;6144559;23;20032;-88
2022/08/13 02:23:06;;;;;;;6.30;3.75;;;18.30;99.90;;;;;;6120774;23;20018;-88
2022/08/13 02:25:33;;;;;;;7.18;3.67;;;18.40;99.90;;;;;;6145503;23;20022;-88
2022/08/13 02:27:59;;;;;;;6.93;4.03;;;18.30;99.90;;;;;;6144823;23;20018;-88
2022/08/13 02:30:28;;;;;;;8.90;4.95;;;18.30;99.90;;;;;;6120614;23;20341;-88
2022/08/13 02:32:54;;;;;;;7.03;4.22;;;18.30;99.90;;;;;;6145081;23;20022;-88
2022/08/13 02:35:21;;;;;;;7.20;4.60;;;18.30;99.90;;;;;;6145250;23;20512;-88
2022/08/13 02:37:49;;;;;;;6.35;3.97;;;18.30;99.90;;;;;;6144118;23;20010;-88
2022/08/13 02:43:00;;;;;;;8.63;4.80;;;18.50;99.90;;;;;;6147000;23;20021;-88
2022/08/13 02:45:26;;;;;;;7.68;4.18;;;18.20;99.90;;;;;;6146672;22;20104;-88
2022/08/13 02:47:53;;;;;;;8.50;4.72;;;18.10;99.90;;;;;;6144067;22;20498;-88
2022/08/13 02:50:21;;;;;;;5.97;4.28;;;18.20;99.90;;;;;;6144994;23;20093;-88
2022/08/13 02:52:51;;;;;;;7.25;4.57;;;18.20;99.90;;;;;;6145268;22;20586;-88
2022/08/13 02:55:19;;;;;;;6.75;4.50;;;18.10;99.90;;;;;;6144280;23;20028;-88
2022/08/13 02:57:46;;;;;;;6.03;4.05;;;18.10;99.90;;;;;;6144766;23;20018;-88
2022/08/13 03:00:12;;;;;;;7.60;4.13;;;18.00;99.90;;;;;;6146972;23;20013;-88
2022/08/13 03:02:41;;;;;;;8.88;3.92;;;18.00;99.90;;;;;;6146520;23;20097;-88
2022/08/13 03:05:09;;;;;;;6.55;4.15;;;18.00;99.90;;;;;;6146677;23;20023;-88
2022/08/13 03:07:37;;;;;;;10.45;4.50;;;18.00;99.90;;;;;;6144108;22;20062;-88
2022/08/13 03:10:04;;;;;;;7.40;4.28;;;18.00;99.90;;;;;;6145085;23;20097;-88
2022/08/13 03:12:32;;;;;;;6.68;4.32;;;17.90;99.90;;;;;;6146666;23;20013;-89
2022/08/13 03:14:59;;;;;;;7.70;4.35;;;17.90;99.90;;;;;;6144878;23;20036;-88
2022/08/13 03:17:25;;;;;;;5.40;3.75;;;17.90;99.90;;;;;;6145059;23;20341;-87
2022/08/13 03:19:51;;;;;;;6.15;4.57;;;17.90;99.90;;;;;;6119631;23;20089;-88
2022/08/13 03:22:17;;;;;;;8.43;4.20;;;17.80;99.90;;;;;;6144398;23;20026;-88
2022/08/13 03:24:43;;;;;;;7.55;4.70;;;17.80;99.90;;;;;;6144720;23;20045;-88
2022/08/13 03:27:09;;;;;;;9.65;5.22;;;17.80;99.90;;;;;;6146517;23;20014;-88
2022/08/13 03:29:38;;;;;;;7.10;4.43;;;17.60;99.90;;;;;;6146123;23;20516;-88
2022/08/13 03:32:04;;;;;;;8.60;5.13;;;17.70;99.90;;;;;;6147161;23;20072;-88
2022/08/13 03:34:29;;;;;;;8.30;4.75;;;17.60;99.90;;;;;;6144534;23;20021;-88
2022/08/13 03:36:55;;;;;;;9.98;5.03;;;17.60;99.90;;;;;;6144124;23;20025;-88
2022/08/13 03:39:20;;;;;;;6.35;4.82;;;17.60;99.90;;;;;;6169658;22;20097;-88
2022/08/13 03:41:46;;;;;;;8.90;4.75;;;17.50;99.90;;;;;;6144547;23;20391;-88
2022/08/13 03:44:11;;;;;;;9.25;4.80;;;17.50;99.90;;;;;;6145286;23;20025;-88
2022/08/13 03:46:37;;;;;;;10.00;5.05;;;17.50;99.90;;;;;;6144325;23;20045;-88
2022/08/13 03:49:02;;;;;;;7.68;4.53;;;17.50;99.90;;;;;;6144621;23;20345;-88
2022/08/13 03:51:28;;;;;;;7.60;4.82;;;17.40;99.90;;;;;;6144191;23;20319;-88
2022/08/13 03:53:54;;;;;;;8.38;5.22;;;17.50;99.90;;;;;;6146094;22;20418;-88
2022/08/13 03:56:22;;;;;;;9.70;5.60;;;17.40;99.90;;;;;;6144519;23;20013;-89
2022/08/13 03:58:49;;;;;;;7.50;4.68;;;17.40;99.90;;;;;;6119664;23;20079;-88
2022/08/13 04:01:17;;;;;;;8.32;4.90;;;17.40;99.90;;;;;;6119792;23;20025;-88
2022/08/13 04:03:44;;;;;;;9.23;5.32;;;17.30;99.90;;;;;;6144451;23;20021;-88
2022/08/13 04:06:15;;;;;;;6.90;5.07;;;17.30;99.90;;;;;;6119815;23;20315;-88
2022/08/13 04:08:42;;;;;;;7.53;4.90;;;17.30;99.90;;;;;;6144501;23;20474;-88
2022/08/13 04:11:10;;;;;;;8.13;4.90;;;17.30;99.90;;;;;;6144810;23;20563;-88
2022/08/13 04:13:37;;;;;;;8.57;4.75;;;17.20;99.90;;;;;;6144086;23;20018;-88
2022/08/13 04:16:07;;;;;;;7.93;4.88;;;17.20;99.90;;;;;;6144797;23;20125;-88
2022/08/13 04:18:35;;;;;;;7.90;4.50;;;17.20;99.90;;;;;;6120394;23;20475;-88
2022/08/13 04:21:03;;;;;;;8.35;4.60;;;17.20;99.90;;;;;;6119570;23;20025;-88
2022/08/13 04:23:28;;;;;;;6.75;5.05;;;17.20;99.90;;;;;;6144281;23;20410;-88
2022/08/13 04:25:55;;;;;;;8.73;5.03;;;17.20;99.90;;;;;;6144154;23;20065;-88
2022/08/13 04:28:23;;;;;;;7.00;4.55;;;17.10;99.90;;;;;;6144704;23;20315;-88
2022/08/13 04:30:48;;;;;;;10.00;5.35;;;17.10;99.90;;;;;;6144837;23;20067;-88
2022/08/13 04:33:16;;;;;;;10.25;5.68;;;17.10;99.90;;;;;;6145057;23;20092;-88
2022/08/13 04:35:44;;;;;;;9.95;5.65;;;17.10;99.90;;;;;;6143777;23;20021;-87
2022/08/13 04:38:11;;;;;;;7.28;5.30;;;17.10;99.90;;;;;;6144334;22;20037;-88
2022/08/13 04:40:40;;;;;;;9.77;5.70;;;17.10;99.90;;;;;;6143959;23;20025;-88
2022/08/13 04:43:07;;;;;;;10.52;5.85;;;17.00;99.90;;;;;;6144107;22;20084;-88
2022/08/13 04:45:34;;;;;;;10.90;5.80;;;17.00;99.90;;;;;;6144255;22;20025;-88
2022/08/13 04:48:07;;;;;;;9.00;5.40;;;17.10;99.90;;;;;;6144404;22;20014;-88
2022/08/13 04:50:34;;;;;;;7.10;4.97;;;17.00;99.90;;;;;;6144749;23;20025;-88
2022/08/13 04:53:01;;;;;;;10.15;5.20;;;17.10;99.90;;;;;;6144400;23;20096;-88
2022/08/13 04:55:27;;;;;;;10.48;5.22;;;17.00;99.90;;;;;;6145951;23;20025;-88
2022/08/13 04:57:54;;;;;;;8.10;5.03;;;17.00;99.90;;;;;;6119139;23;20032;-88
2022/08/13 05:00:20;;;;;;;9.85;5.25;;;17.00;99.90;;;;;;6144465;23;20398;-88
2022/08/13 05:02:46;;;;;;;7.25;4.72;;;17.00;99.90;;;;;;6144940;23;20085;-88
2022/08/13 05:05:13;;;;;;;6.45;4.80;;;17.00;99.90;;;;;;6144593;23;20060;-88
2022/08/13 05:07:39;;;;;;;7.78;5.32;;;17.00;99.90;;;;;;6145143;23;20449;-87
2022/08/13 05:10:06;;;;;;;6.18;4.72;;;17.00;99.90;;;;;;6144143;23;20367;-88
2022/08/13 05:12:36;;;;;;;8.48;5.40;;;17.00;99.90;;;;;;6145858;23;20026;-88
2022/08/13 05:15:03;;;;;;;8.00;5.38;;;17.00;99.90;;;;;;6147175;23;20083;-88
2022/08/13 05:17:30;;;;;;;9.65;5.32;;;17.00;99.90;;;;;;6144692;23;20405;-88
2022/08/13 05:19:56;;;;;;;8.70;5.28;;;17.00;99.90;;;;;;6146888;23;20086;-88
2022/08/13 05:22:23;;;;;;;10.63;5.20;;;17.10;99.90;;;;;;6121018;23;20025;-88
2022/08/13 05:24:50;;;;;;;10.55;5.47;;;17.10;99.90;;;;;;6144857;23;20018;-88
2022/08/13 05:27:16;;;;;;;10.80;5.28;;;17.10;99.90;;;;;;6145920;23;20398;-87
2022/08/13 05:29:42;;;;;;;7.90;4.78;;;17.10;99.90;;;;;;6147015;23;20010;-88
2022/08/13 05:32:10;;;;;;;7.18;4.68;;;17.20;99.90;;;;;;6145116;23;20457;-87
2022/08/13 05:34:37;;;;;;;7.38;4.85;;;17.20;99.90;;;;;;6146763;23;20017;-88
2022/08/13 05:37:04;;;;;;;10.40;5.75;;;17.20;99.90;;;;;;6147139;23;20022;-88
2022/08/13 05:39:30;;;;;;;8.50;5.22;;;17.20;99.90;;;;;;6145211;23;20021;-88
2022/08/13 05:41:56;;;;;;;8.32;5.63;;;17.30;99.90;;;;;;6120484;23;20082;-88
2022/08/13 05:44:22;;;;;;;8.25;5.75;;;17.30;99.90;;;;;;6145472;23;20018;-88
2022/08/13 05:46:49;;;;;;;11.25;5.85;;;17.30;99.90;;;;;;6146729;23;20021;-88
2022/08/13 05:49:15;;;;;;;10.00;5.22;;;17.30;99.90;;;;;;6147021;23;20020;-87
2022/08/13 05:51:44;;;;;;;8.27;5.30;;;17.40;99.90;;;;;;6145489;23;20408;-88
2022/08/13 05:54:10;;;;;;;9.07;5.30;;;17.40;99.90;;;;;;6147171;23;20017;-88
2022/08/13 05:56:37;;;;;;;8.50;5.43;;;17.40;99.90;;;;;;6146311;23;20405;-87
2022/08/13 06:03:22;;;;;;;8.00;5.50;;;17.50;99.90;;;;;;6145461;23;20029;-88
2022/08/13 06:04:40;;;;;;;8.70;5.47;;;17.60;99.90;;;;;;6144539;23;20448;-88
2022/08/13 06:07:09;;;;;;;9.30;5.68;;;17.60;99.90;;;;;;6120816;23;20021;-89
2022/08/13 06:09:35;;;;;;;9.75;5.68;;;17.60;99.90;;;;;;6145079;23;20017;-88
2022/08/13 06:12:01;;;;;;;7.85;4.97;;;17.70;99.90;;;;;;6147187;23;20433;-89
2022/08/13 06:14:26;;;;;;;7.38;4.90;;;17.70;99.90;;;;;;6145371;23;20025;-88
2022/08/13 06:16:53;;;;;;;7.50;5.07;;;17.80;99.90;;;;;;6144162;23;20404;-88
2022/08/13 06:19:24;;;;;;;10.80;5.22;;;17.80;99.90;;;;;;6147004;23;20028;-88
2022/08/13 06:21:51;;;;;;;7.43;4.30;;;17.90;99.90;;;;;;6146071;23;20013;-88
2022/08/13 06:24:17;;;;;;;8.75;4.68;;;17.80;99.90;;;;;;6146759;23;20018;-88
2022/08/13 06:26:42;;;;;;;7.03;4.47;;;18.30;99.90;;;;;;6145513;23;20013;-88
2022/08/13 06:29:09;;;;;;;9.55;4.72;;;18.00;99.90;;;;;;6146757;22;20053;-88
2022/08/13 06:31:38;;;;;;;6.03;4.50;;;18.00;99.90;;;;;;6119872;23;20476;-88
2022/08/13 06:34:08;;;;;;;7.78;4.70;;;18.10;99.90;;;;;;6147601;23;20345;-88
2022/08/13 06:36:36;;;;;;;6.10;4.43;;;18.20;99.90;;;;;;6146869;23;20022;-88
2022/08/13 06:39:06;;;;;;;9.00;4.32;;;18.20;99.90;;;;;;6145176;22;20071;-88
2022/08/13 06:41:34;;;;;;;7.45;4.80;;;18.30;99.90;;;;;;6144924;23;20062;-88
2022/08/13 06:44:00;;;;;;;8.20;4.65;;;18.30;99.90;;;;;;6146768;23;20017;-88
2022/08/13 06:46:28;;;;;;;8.43;4.80;;;18.40;99.90;;;;;;6144675;23;20021;-88
2022/08/13 06:48:55;;;;;;;7.10;4.72;;;18.40;99.90;;;;;;6144666;22;20064;-88
2022/08/13 06:51:25;;;;;;;7.68;4.32;;;18.50;99.90;;;;;;6145550;23;20067;-88
2022/08/13 06:53:50;;;;;;;7.55;4.75;;;18.60;99.90;;;;;;6146623;23;20374;-88
2022/08/13 06:56:21;;;;;;;6.10;3.88;;;18.60;99.90;;;;;;6145206;23;20052;-88
2022/08/13 06:58:49;;;;;;;8.40;4.50;;;18.60;99.90;;;;;;6146046;23;20108;-88
2022/08/13 07:01:21;;;;;;;7.00;4.43;;;18.70;99.90;;;;;;6146525;23;20504;-88
2022/08/13 07:03:48;;;;;;;8.40;5.15;;;18.80;99.90;;;;;;6145004;23;20067;-90
2022/08/13 07:06:18;;;;;;;10.75;4.82;;;18.90;99.90;;;;;;6144990;23;20022;-89
2022/08/13 07:08:45;;;;;;;7.38;4.45;;;19.00;99.90;;;;;;6144648;23;20021;-89
2022/08/13 07:11:23;;;;;;;7.50;4.47;;;19.00;99.90;;;;;;6147309;22;20134;-89
2022/08/13 07:13:52;;;;;;;6.78;4.32;;;19.10;99.90;;;;;;6143669;23;20018;-89
2022/08/13 07:16:21;;;;;;;9.55;4.47;;;19.20;99.90;;;;;;6145119;23;20029;-89
2022/08/13 07:18:50;;;;;;;5.90;4.00;;;19.20;99.90;;;;;;6144445;23;20039;-89
2022/08/13 07:21:19;;;;;;;8.60;4.20;;;19.30;99.90;;;;;;6146654;23;20021;-90
2022/08/13 07:23:46;;;;;;;5.50;3.17;;;19.30;99.90;;;;;;6144794;23;20018;-89
2022/08/13 07:26:12;;;;;;;11.27;4.00;;;19.40;99.90;;;;;;6120140;23;20465;-88
2022/08/13 07:28:40;;;;;;;5.80;3.72;;;19.40;99.90;;;;;;6144115;23;20093;-89
2022/08/13 07:31:06;;;;;;;8.45;3.60;;;19.50;99.90;;;;;;6145004;22;20421;-89
2022/08/13 07:33:37;;;;;;;8.00;3.10;;;19.60;99.90;;;;;;6146338;22;20017;-89
2022/08/13 07:36:05;;;;;;;9.77;3.45;;;19.70;99.90;;;;;;6144875;23;20026;-89
2022/08/13 07:38:31;;;;;;;6.75;3.00;;;19.70;99.90;;;;;;6144609;23;20024;-89
2022/08/13 07:40:59;;;;;;;4.82;2.72;;;19.80;99.90;;;;;;6146231;23;20014;-89
2022/08/13 07:43:26;;;;;;;6.13;2.63;;;19.90;99.90;;;;;;6120299;23;20018;-89
2022/08/13 07:46:10;;;;;;;6.70;2.55;;;20.00;99.90;;;;;;6144177;23;20352;-89
2022/08/13 07:48:40;;;;;;;6.18;2.55;;;20.10;99.90;;;;;;6146357;23;20013;-89
2022/08/13 07:51:19;;;;;;;5.25;2.20;;;20.20;99.90;;;;;;6146489;23;20010;-89
2022/08/13 07:53:49;;;;;;;4.75;2.20;;;20.30;99.90;;;;;;6146281;23;20021;-89
2022/08/13 07:56:21;;;;;;;3.97;2.05;;;20.40;99.90;;;;;;6144465;22;20025;-89
2022/08/13 07:58:47;;;;;;;6.75;2.25;;;20.60;99.90;;;;;;6168686;23;20089;-89
2022/08/13 08:01:12;;;;;;;6.70;2.78;;;20.70;99.90;;;;;;6120088;23;20122;-89
2022/08/13 08:03:42;;;;;;;4.88;1.98;;;20.80;99.90;;;;;;6145902;22;20018;-90
2022/08/13 08:06:15;;;;;;;6.75;2.30;;;21.00;99.90;;;;;;6120061;23;20496;-89
2022/08/13 08:08:42;;;;;;;6.85;2.22;;;21.30;99.90;;;;;;6144405;23;20021;-90
2022/08/13 08:12:32;;;;;;;7.68;2.17;;;21.50;99.90;;;;;;6145651;23;20615;-90
2022/08/13 08:14:01;;;;;;;4.13;1.60;;;21.80;99.90;;;;;;6146144;23;20018;-89
2022/08/13 08:16:32;;;;;;;7.40;1.92;;;22.10;99.90;;;;;;6146433;23;20341;-90
2022/08/13 08:18:59;;;;;;;5.97;1.60;;;22.30;99.90;;;;;;6146650;23;20055;-89
2022/08/13 08:21:26;;;;;;;5.28;1.90;;;22.50;99.90;;;;;;6146193;23;20021;-87
2022/08/13 08:24:00;;;;;;;5.40;1.63;;;22.70;99.90;;;;;;6146196;23;20024;-88
2022/08/13 08:26:28;;;;;;;6.95;1.90;;;23.00;99.50;;;;;;6143876;23;20155;-88
2022/08/13 08:28:55;;;;;;;4.68;1.80;;;23.20;98.80;;;;;;6119821;23;20067;-88
2022/08/13 08:31:21;;;;;;;4.90;1.88;;;23.40;98.50;;;;;;6119560;23;20100;-87
2022/08/13 08:33:47;;;;;;;4.75;1.70;;;23.60;98.10;;;;;;6146297;23;20026;-87
2022/08/13 08:36:14;;;;;;;6.88;1.75;;;23.90;98.10;;;;;;6146391;23;20112;-88
2022/08/13 08:44:32;;;;;;;4.85;1.40;;;24.40;96.00;;;;;;6145393;23;20450;-88
2022/08/13 08:46:59;;;;;;;4.70;1.50;;;24.60;95.50;;;;;;6146419;23;20070;-88
2022/08/13 08:49:25;;;;;;;4.78;1.42;;;24.70;95.00;;;;;;6144557;23;20018;-88
2022/08/13 08:51:53;;;;;;;7.35;1.60;;;24.90;94.60;;;;;;6145859;23;20029;-88
2022/08/13 08:54:20;;;;;;;4.13;1.55;;;25.00;94.20;;;;;;6145820;23;20476;-88
2022/08/13 08:56:55;;;;;;;5.68;1.50;;;25.10;93.90;;;;;;6142773;23;20342;-88
2022/08/13 08:59:41;;;;;;;5.32;1.40;;;25.30;93.40;;;;;;6146568;23;20018;-89
2022/08/13 09:02:19;;;;;;;5.60;1.77;;;25.40;92.80;;;;;;6146295;23;20018;-88
2022/08/13 09:04:53;;;;;;;4.55;1.30;;;25.50;92.20;;;;;;6143853;23;20788;-88
2022/08/13 09:07:21;;;;;;;3.75;1.40;;;25.70;92.10;;;;;;6143584;23;20546;-89
2022/08/13 09:09:49;;;;;;;4.47;1.60;;;25.80;91.70;;;;;;6145327;23;20017;-82
2022/08/13 09:12:15;;;;;;;4.03;1.23;;;26.00;91.80;;;;;;6143570;23;20491;-82
2022/08/13 09:14:41;;;;;;;3.38;1.35;;;26.20;91.40;;;;;;6145762;23;20021;-87
2022/08/13 09:17:07;;;;;;;3.67;1.23;;;26.20;90.50;;;;;;6119806;23;20021;-87
2022/08/13 09:19:33;;;;;;;5.75;1.73;;;26.50;90.20;;;;;;6144343;23;20067;-88
2022/08/13 09:21:59;;;;;;;2.55;1.13;;;26.60;89.20;;;;;;6146326;22;20357;-87
2022/08/13 09:24:25;;;;;;;3.08;1.30;;;26.70;88.90;;;;;;6145400;23;20089;-87
2022/08/13 09:26:51;;;;;;;4.32;1.40;;;26.80;88.20;;;;;;6145653;23;20026;-87
2022/08/13 09:29:20;;;;;;;5.65;1.40;;;27.00;86.90;;;;;;6146488;23;20464;-87
2022/08/13 09:31:50;;;;;;;2.80;1.30;;;27.00;85.80;;;;;;6143984;22;20018;-88
2022/08/13 09:34:19;;;;;;;4.78;1.38;;;27.10;85.50;;;;;;6144286;23;20017;-88
2022/08/13 09:36:45;;;;;;;3.92;1.40;;;27.30;84.40;;;;;;6143861;23;20094;-88
2022/08/13 09:39:36;;;;;;;4.15;1.10;;;27.40;84.80;;;;;;6143216;23;20481;-88
2022/08/13 09:42:11;;;;;;;4.70;1.20;;;27.40;83.10;;;;;;6119375;23;20354;-87
2022/08/13 09:44:43;;;;;;;5.85;1.55;;;27.60;82.90;;;;;;6143570;22;20059;-88
2022/08/13 09:47:12;;;;;;;2.95;1.40;;;27.80;83.80;;;;;;6144150;22;20060;-88
2022/08/13 09:49:38;;;;;;;4.28;1.15;;;27.90;83.70;;;;;;6145529;23;20041;-88
2022/08/13 09:52:03;;;;;;;3.20;1.25;;;28.00;83.70;;;;;;6144107;23;20357;-87
2022/08/13 09:54:29;;;;;;;5.68;1.52;;;28.10;82.50;;;;;;6143508;23;20014;-88
2022/08/13 09:56:58;;;;;;;4.72;1.30;;;28.20;81.00;;;;;;6119539;23;20026;-88
2022/08/13 09:59:24;;;;;;;4.03;1.10;;;28.30;79.40;;;;;;6145608;23;20028;-87
2022/08/13 10:01:50;;;;;;;2.28;1.10;;;28.40;80.50;;;;;;6146708;23;20018;-88
2022/08/13 10:04:18;;;;;;;6.97;1.73;;;28.40;78.30;;;;;;6120172;23;20010;-88
2022/08/13 10:06:45;;;;;;;6.15;1.35;;;28.50;78.70;;;;;;6145325;23;20021;-88
2022/08/13 10:09:12;;;;;;;3.63;1.15;;;28.60;78.70;;;;;;6146765;23;20084;-87
2022/08/13 10:11:38;;;;;;;4.93;1.42;;;28.70;78.40;;;;;;6120211;23;20096;-87
2022/08/13 10:14:03;;;;;;;4.68;1.10;;;28.80;77.40;;;;;;6146267;23;20053;-88
2022/08/13 10:16:29;;;;;;;3.58;1.25;;;28.90;76.80;;;;;;6146908;23;20383;-88
2022/08/13 10:18:55;;;;;;;4.70;1.20;;;29.00;76.90;;;;;;6146119;22;20024;-88
2022/08/13 10:21:21;;;;;;;4.18;1.20;;;29.10;76.60;;;;;;6147364;22;20100;-87
2022/08/13 10:23:47;;;;;;;5.32;1.10;;;29.20;76.20;;;;;;6144486;23;20449;-88
2022/08/13 10:26:17;;;;;;;2.95;1.20;;;29.30;75.10;;;;;;6146813;23;20028;-89
2022/08/13 10:28:43;;;;;;;2.90;1.10;;;29.40;74.10;;;;;;6144721;22;20018;-88
2022/08/13 10:31:09;;;;;;;3.90;1.20;;;29.50;74.90;;;;;;6146866;22;20021;-88
2022/08/13 10:33:35;;;;;;;3.22;1.10;;;29.70;74.70;;;;;;6146461;23;20048;-87
2022/08/13 10:36:01;;;;;;;3.55;1.35;;;29.70;74.20;;;;;;6145489;23;20017;-87
2022/08/13 10:38:27;;;;;;;7.43;1.33;;;29.80;73.50;;;;;;6144311;23;20052;-88
2022/08/13 10:40:57;;;;;;;5.38;1.40;;;29.80;73.00;;;;;;6120414;23;20021;-88
2022/08/13 10:43:23;;;;;;;2.88;1.33;;;29.90;72.90;;;;;;6145141;23;20036;-87
2022/08/13 10:45:50;;;;;;;4.38;1.13;;;30.00;72.60;;;;;;6120265;23;20021;-88
2022/08/13 10:48:17;;;;;;;1.80;1.02;;;30.10;71.40;;;;;;6145167;23;20013;-88
2022/08/13 10:50:43;;;;;;;1.67;0.90;;;30.10;70.50;;;;;;6119521;23;20067;-88
2022/08/13 10:53:54;;;;;;;7.68;1.20;;;30.10;70.40;;;;;;6146967;23;20051;-88
2022/08/13 10:55:54;;;;;;;2.45;1.40;;;30.10;69.90;;;;;;6144407;23;20029;-88
2022/08/13 10:58:20;;;;;;;4.50;1.40;;;30.30;70.70;;;;;;6145085;23;20123;-88
2022/08/13 11:00:46;;;;;;;2.05;1.10;;;30.40;69.80;;;;;;6169317;22;20465;-88
2022/08/13 11:03:13;;;;;;;2.15;1.00;;;30.50;70.60;;;;;;6120455;23;20480;-88
2022/08/13 11:05:38;;;;;;;4.05;1.00;;;30.60;70.00;;;;;;6144114;22;20063;-88
2022/08/13 11:08:04;;;;;;;3.10;1.20;;;30.70;69.40;;;;;;6120059;23;20446;-88
2022/08/13 11:10:29;;;;;;;6.25;1.10;;;30.80;69.50;;;;;;6144914;23;20024;-88
2022/08/13 11:12:55;;;;;;;5.43;1.23;;;30.80;68.80;;;;;;6146158;22;20022;-88
2022/08/13 11:15:22;;;;;;;2.15;1.13;;;30.90;69.10;;;;;;6147512;22;20092;-89
2022/08/13 11:17:56;;;;;;;3.25;1.10;;;31.00;68.60;;;;;;6144565;22;20013;-88
2022/08/13 11:20:24;;;;;;;2.47;1.08;;;31.10;68.10;;;;;;6119874;23;20319;-88
2022/08/13 11:22:53;;;;;;;3.53;1.15;;;31.20;67.90;;;;;;6146464;23;20021;-89
2022/08/13 11:25:19;;;;;;;3.70;1.10;;;31.20;67.50;;;;;;6144715;23;20028;-90
2022/08/13 11:27:45;;;;;;;8.27;1.23;;;31.40;66.80;;;;;;6144498;23;20033;-89
2022/08/13 11:30:11;;;;;;;4.15;1.10;;;31.40;67.20;;;;;;6144755;23;20021;-89
2022/08/13 11:32:37;;;;;;;2.63;1.00;;;31.50;67.70;;;;;;6144324;23;20070;-89
2022/08/13 11:35:04;;;;;;;3.08;1.45;;;31.60;67.20;;;;;;6144524;23;20014;-89
2022/08/13 11:37:30;;;;;;;3.60;1.10;;;31.60;65.90;;;;;;6146513;23;20029;-89
2022/08/13 11:39:55;;;;;;;1.60;0.93;;;31.60;65.80;;;;;;6144634;23;20013;-88
2022/08/13 11:42:21;;;;;;;4.75;1.10;;;31.70;65.30;;;;;;6146887;22;20040;-89
2022/08/13 11:44:47;;;;;;;4.10;1.10;;;31.80;67.30;;;;;;6144340;23;20086;-87
2022/08/13 11:47:12;;;;;;;3.40;1.00;;;31.90;65.40;;;;;;6144663;23;20018;-88
2022/08/13 11:49:38;;;;;;;2.97;1.20;;;32.00;65.30;;;;;;6144391;23;20100;-89
2022/08/13 11:52:03;;;;;;;3.72;1.05;;;32.00;67.80;;;;;;6120396;23;20021;-90
2022/08/13 11:54:29;;;;;;;3.97;1.10;;;32.10;65.40;;;;;;6169444;23;20430;-89
2022/08/13 11:56:54;;;;;;;4.20;1.00;;;32.10;66.30;;;;;;6145808;22;20021;-89
2022/08/13 11:59:20;;;;;;;1.48;0.90;;;32.20;64.90;;;;;;6146326;22;20452;-89
2022/08/13 12:01:46;;;;;;;3.92;1.10;;;32.30;64.50;;;;;;6145927;22;20025;-89
2022/08/13 12:04:12;;;;;;;1.80;1.02;;;32.40;64.50;;;;;;6119505;23;20017;-89
2022/08/13 12:06:39;;;;;;;2.78;1.20;;;32.40;64.60;;;;;;6144784;23;20441;-88
2022/08/13 12:09:05;;;;;;;4.57;1.10;;;32.50;63.90;;;;;;6144059;23;20018;-88
2022/08/13 12:11:32;;;;;;;3.38;1.00;;;32.50;62.40;;;;;;6146576;22;20093;-88
2022/08/13 12:13:57;;;;;;;4.13;1.20;;;32.50;62.10;;;;;;6146233;23;20018;-89
2022/08/13 12:16:23;;;;;;;1.90;0.88;;;32.50;61.80;;;;;;6146803;22;20020;-89
2022/08/13 12:18:48;;;;;;;1.67;0.98;;;32.60;62.40;;;;;;6145604;22;20022;-88
2022/08/13 12:21:14;;;;;;;3.45;1.20;;;32.60;61.40;;;;;;6146131;22;20026;-89
2022/08/13 12:23:40;;;;;;;4.20;1.17;;;32.70;61.10;;;;;;6146071;23;20022;-89
2022/08/13 12:26:06;;;;;;;3.60;1.30;;;32.70;61.50;;;;;;6146362;22;20416;-88
2022/08/13 12:28:32;;;;;;;2.40;1.30;;;32.70;61.60;;;;;;6144403;23;20017;-89
2022/08/13 12:31:06;;;;;;;3.15;1.33;;;32.70;62.00;;;;;;6146326;23;20024;-89
2022/08/13 12:33:33;;;;;;;3.45;1.13;;;32.70;61.50;;;;;;6145942;23;20119;-88
2022/08/13 12:36:01;;;;;;;2.92;1.10;;;32.80;62.10;;;;;;6119859;23;20009;-89
2022/08/13 12:38:28;;;;;;;5.57;1.70;;;32.80;61.70;;;;;;6144698;23;20028;-89
2022/08/13 12:40:54;;;;;;;3.50;1.30;;;32.80;61.30;;;;;;6144521;23;20021;-89
2022/08/13 12:43:20;;;;;;;2.05;1.10;;;32.80;61.30;;;;;;6146594;23;20345;-89
2022/08/13 12:45:46;;;;;;;4.45;1.25;;;32.90;61.20;;;;;;6169220;23;20017;-89
2022/08/13 12:48:14;;;;;;;3.95;1.17;;;33.00;61.10;;;;;;6145774;22;20020;-89
2022/08/13 12:50:42;;;;;;;3.95;1.15;;;33.10;60.70;;;;;;6146026;23;20018;-89
2022/08/13 12:53:08;;;;;;;1.48;1.05;;;33.20;61.00;;;;;;6144550;23;20009;-89
2022/08/13 12:55:35;;;;;;;2.35;1.30;;;33.20;61.00;;;;;;6144244;23;20028;-89
2022/08/13 12:58:14;;;;;;;2.05;1.23;;;33.30;61.80;;;;;;6146013;23;20100;-89
2022/08/13 13:00:40;;;;;;;2.70;1.45;;;33.50;60.00;;;;;;6143909;23;20413;-89
2022/08/13 13:03:05;;;;;;;4.68;1.27;;;33.60;60.50;;;;;;6119376;23;20084;-89
2022/08/13 13:05:31;;;;;;;3.45;1.40;;;33.60;60.20;;;;;;6143923;23;20029;-89
2022/08/13 13:07:57;;;;;;;4.18;1.45;;;33.70;60.10;;;;;;6143687;23;20346;-89